createdAt,value
2023-05-09T00:00:32.729Z,18.20
2023-05-09T00:03:00.114Z,17.90
2023-05-09T00:05:27.381Z,17.70
2023-05-09T00:07:54.447Z,18.20
2023-05-09T00:10:21.534Z,18.50
2023-05-09T00:12:49.371Z,18.20
2023-05-09T00:15:16.653Z,17.80
2023-05-09T00:17:44.646Z,18.30
2023-05-09T00:20:12.815Z,18.20
2023-05-09T00:22:43.471Z,18.30
2023-05-09T00:25:11.555Z,18.30
2023-05-09T00:27:38.780Z,18.40
2023-05-09T00:30:06.611Z,18.40
2023-05-09T00:32:34.415Z,18.40
2023-05-09T00:35:01.568Z,18.40
2023-05-09T00:37:30.844Z,18.10
2023-05-09T00:39:57.900Z,18.00
2023-05-09T00:42:25.064Z,18.30
2023-05-09T00:44:52.146Z,18.20
2023-05-09T00:47:20.663Z,18.20
2023-05-09T00:49:48.242Z,18.20
2023-05-09T00:52:15.387Z,18.20
2023-05-09T00:54:42.514Z,18.20
2023-05-09T00:57:09.600Z,18.50
2023-05-09T00:59:37.218Z,18.20
2023-05-09T01:02:04.277Z,18.20
2023-05-09T01:04:31.401Z,18.10
2023-05-09T01:07:11.342Z,18.30
2023-05-09T01:09:58.563Z,18.20
2023-05-09T01:12:46.968Z,18.20
2023-05-09T01:15:24.211Z,18.30
2023-05-09T01:18:00.897Z,18.30
2023-05-09T01:20:37.879Z,18.30
2023-05-09T01:23:15.402Z,18.30
2023-05-09T01:26:05.462Z,18.30
2023-05-09T01:28:49.624Z,18.30
2023-05-09T01:31:17.536Z,18.30
2023-05-09T01:33:46.713Z,18.40
2023-05-09T01:36:17.259Z,18.50
2023-05-09T01:38:46.342Z,18.20
2023-05-09T01:41:16.693Z,18.20
2023-05-09T01:43:46.161Z,18.30
2023-05-09T01:46:16.268Z,18.20
2023-05-09T01:48:44.769Z,18.20
2023-05-09T01:51:14.948Z,18.00
2023-05-09T01:53:43.266Z,18.20
2023-05-09T01:56:11.883Z,18.20
2023-05-09T01:58:40.026Z,18.40
2023-05-09T02:01:07.440Z,18.20
2023-05-09T02:03:35.630Z,18.20
2023-05-09T02:06:03.975Z,18.20
2023-05-09T02:08:32.673Z,18.20
2023-05-09T02:10:59.864Z,18.10
2023-05-09T02:13:27.115Z,18.10
2023-05-09T02:15:55.184Z,18.10
2023-05-09T02:18:22.738Z,18.10
2023-05-09T02:20:49.921Z,18.00
2023-05-09T02:23:17.138Z,18.00
2023-05-09T02:25:44.866Z,18.10
2023-05-09T02:28:13.185Z,18.30
2023-05-09T02:30:43.209Z,18.10
2023-05-09T02:33:12.672Z,18.20
2023-05-09T02:35:46.255Z,17.80
2023-05-09T02:38:14.357Z,18.20
2023-05-09T02:40:44.201Z,18.50
2023-05-09T02:43:11.483Z,18.30
2023-05-09T02:45:38.740Z,18.20
2023-05-09T02:48:08.574Z,18.10
2023-05-09T02:50:38.125Z,18.30
2023-05-09T02:53:06.111Z,18.30
2023-05-09T02:55:33.209Z,18.30
2023-05-09T02:58:12.782Z,18.20
2023-05-09T03:00:41.707Z,18.20
2023-05-09T03:03:09.268Z,18.30
2023-05-09T03:05:36.517Z,18.30
2023-05-09T03:08:04.017Z,18.20
2023-05-09T03:10:31.105Z,18.20
2023-05-09T03:12:58.211Z,18.40
2023-05-09T03:15:25.297Z,18.10
2023-05-09T03:17:52.375Z,18.20
2023-05-09T03:20:19.652Z,17.70
2023-05-09T03:22:48.316Z,18.10
2023-05-09T03:25:16.286Z,18.10
2023-05-09T03:27:43.574Z,18.00
2023-05-09T03:30:11.170Z,18.20
2023-05-09T03:32:39.005Z,18.00
2023-05-09T03:35:06.423Z,18.00
2023-05-09T03:37:33.611Z,18.00
2023-05-09T03:40:00.753Z,19.00
2023-05-09T03:42:27.857Z,18.00
2023-05-09T03:44:55.071Z,18.10
2023-05-09T03:47:22.117Z,18.10
2023-05-09T03:49:49.258Z,18.30
2023-05-09T03:52:16.320Z,18.10
2023-05-09T03:54:43.374Z,18.10
2023-05-09T03:57:10.534Z,18.20
2023-05-09T03:59:37.590Z,17.80
2023-05-09T04:02:04.677Z,18.10
2023-05-09T04:04:31.913Z,18.20
2023-05-09T04:06:58.994Z,18.10
2023-05-09T04:09:27.178Z,18.10
2023-05-09T04:11:54.272Z,18.10
2023-05-09T04:14:21.359Z,18.10
2023-05-09T04:16:48.473Z,18.00
2023-05-09T04:19:15.541Z,17.90
2023-05-09T04:21:42.637Z,17.90
2023-05-09T04:24:09.699Z,17.90
2023-05-09T04:26:38.401Z,17.90
2023-05-09T04:29:05.852Z,17.70
2023-05-09T04:31:33.040Z,18.00
2023-05-09T04:34:00.211Z,18.10
2023-05-09T04:36:29.952Z,18.10
2023-05-09T04:38:57.253Z,18.10
2023-05-09T04:41:24.297Z,18.10
2023-05-09T04:43:52.297Z,18.10
2023-05-09T04:46:19.444Z,18.10
2023-05-09T04:48:46.498Z,18.20
2023-05-09T04:51:13.552Z,18.20
2023-05-09T04:53:40.682Z,18.10
2023-05-09T04:56:07.895Z,18.10
2023-05-09T04:58:38.240Z,18.10
2023-05-09T05:01:05.983Z,18.10
2023-05-09T05:03:33.228Z,17.60
2023-05-09T05:06:00.358Z,18.50
2023-05-09T05:08:27.400Z,18.10
2023-05-09T05:10:54.517Z,18.10
2023-05-09T05:13:21.799Z,18.10
2023-05-09T05:15:49.631Z,18.20
2023-05-09T05:18:16.713Z,17.10
2023-05-09T05:20:43.904Z,18.20
2023-05-09T05:23:11.078Z,18.00
2023-05-09T05:25:38.351Z,18.20
2023-05-09T05:28:05.457Z,18.20
2023-05-09T05:30:34.375Z,17.30
2023-05-09T05:33:01.933Z,17.80
2023-05-09T05:35:29.282Z,18.20
2023-05-09T05:37:56.428Z,18.20
2023-05-09T05:40:23.506Z,18.20
2023-05-09T05:42:50.630Z,18.20
2023-05-09T05:45:17.975Z,17.60
2023-05-09T05:47:45.564Z,18.20
2023-05-09T05:50:13.180Z,18.20
2023-05-09T05:52:41.438Z,18.10
2023-05-09T05:55:09.208Z,17.50
2023-05-09T05:57:37.581Z,18.20
2023-05-09T06:00:10.737Z,18.00
2023-05-09T06:02:38.020Z,18.20
2023-05-09T06:05:07.012Z,18.10
2023-05-09T06:07:34.063Z,18.20
2023-05-09T06:10:01.152Z,18.20
2023-05-09T06:12:28.265Z,18.20
2023-05-09T06:14:55.595Z,18.20
2023-05-09T06:17:25.414Z,18.10
2023-05-09T06:19:52.503Z,18.10
2023-05-09T06:22:19.544Z,17.90
2023-05-09T06:24:46.600Z,18.20
2023-05-09T06:27:13.804Z,17.30
2023-05-09T06:29:40.861Z,18.50
2023-05-09T06:32:07.981Z,17.70
2023-05-09T06:34:35.124Z,18.10
2023-05-09T06:37:02.179Z,17.90
2023-05-09T06:39:29.347Z,18.00
2023-05-09T06:41:56.377Z,18.10
2023-05-09T06:44:23.466Z,18.00
2023-05-09T06:46:50.864Z,18.10
2023-05-09T06:49:17.953Z,18.20
2023-05-09T06:51:45.028Z,18.20
2023-05-09T06:54:12.132Z,18.20
2023-05-09T06:56:39.380Z,18.20
2023-05-09T06:59:07.689Z,18.30
2023-05-09T07:01:34.901Z,18.30
2023-05-09T07:04:02.032Z,18.30
2023-05-09T07:06:29.093Z,18.30
2023-05-09T07:08:56.746Z,18.30
2023-05-09T07:11:23.824Z,18.40
2023-05-09T07:13:50.870Z,18.10
2023-05-09T07:16:18.421Z,18.00
2023-05-09T07:18:45.547Z,18.30
2023-05-09T07:21:12.609Z,18.30
2023-05-09T07:23:39.657Z,18.30
2023-05-09T07:26:06.865Z,18.30
2023-05-09T07:28:34.022Z,18.30
2023-05-09T07:31:01.119Z,18.30
2023-05-09T07:33:28.180Z,18.30
2023-05-09T07:35:55.525Z,18.30
2023-05-09T07:38:22.569Z,18.40
2023-05-09T07:40:49.679Z,18.30
2023-05-09T07:43:16.732Z,18.40
2023-05-09T07:45:44.268Z,18.40
2023-05-09T07:48:11.503Z,18.40
2023-05-09T07:50:39.357Z,18.50
2023-05-09T07:53:06.576Z,18.40
2023-05-09T07:55:33.669Z,18.40
2023-05-09T07:58:00.751Z,18.40
2023-05-09T08:00:27.838Z,19.00
2023-05-09T08:02:55.057Z,18.40
2023-05-09T08:05:22.289Z,18.50
2023-05-09T08:07:49.405Z,18.30
2023-05-09T08:10:16.840Z,18.30
2023-05-09T08:12:44.018Z,18.30
2023-05-09T08:15:11.494Z,18.20
2023-05-09T08:17:38.594Z,18.30
2023-05-09T08:20:07.228Z,18.20
2023-05-09T08:22:34.317Z,18.30
2023-05-09T08:25:01.396Z,18.20
2023-05-09T08:27:28.513Z,17.90
2023-05-09T08:29:55.562Z,17.70
2023-05-09T08:32:22.749Z,17.50
2023-05-09T08:34:49.840Z,17.50
2023-05-09T08:37:17.070Z,17.60
2023-05-09T08:39:44.141Z,17.70
2023-05-09T08:42:11.944Z,17.80
2023-05-09T08:44:39.013Z,17.90
2023-05-09T08:47:06.915Z,18.20
2023-05-09T08:49:35.594Z,18.10
2023-05-09T08:52:03.003Z,18.10
2023-05-09T08:54:30.613Z,18.20
2023-05-09T08:56:57.917Z,17.40
2023-05-09T08:59:26.409Z,17.70
2023-05-09T09:01:54.580Z,17.60
2023-05-09T09:04:22.424Z,17.60
2023-05-09T09:06:50.633Z,17.40
2023-05-09T09:09:19.052Z,17.40
2023-05-09T09:11:47.452Z,17.30
2023-05-09T09:14:23.647Z,17.30
2023-05-09T09:16:52.501Z,17.50
2023-05-09T09:19:21.322Z,17.50
2023-05-09T09:21:50.855Z,17.50
2023-05-09T09:24:23.029Z,17.50
2023-05-09T09:26:51.374Z,17.60
2023-05-09T09:29:20.405Z,17.60
2023-05-09T09:31:53.570Z,17.50
2023-05-09T09:34:22.712Z,17.40
2023-05-09T09:36:50.356Z,17.30
2023-05-09T09:39:17.487Z,17.30
2023-05-09T09:41:44.967Z,17.20
2023-05-09T09:44:18.789Z,17.30
2023-05-09T09:46:51.659Z,17.30
2023-05-09T09:49:26.678Z,17.20
2023-05-09T09:51:58.378Z,17.20
2023-05-09T09:54:28.540Z,17.30
2023-05-09T09:56:56.866Z,17.30
2023-05-09T09:59:25.668Z,17.30
2023-05-09T10:02:08.239Z,17.20
2023-05-09T10:04:37.784Z,17.50
2023-05-09T10:07:06.873Z,17.20
2023-05-09T10:09:34.998Z,17.20
2023-05-09T10:12:04.302Z,17.20
2023-05-09T10:14:35.002Z,17.30
2023-05-09T10:17:04.953Z,17.30
2023-05-09T10:19:32.908Z,17.40
2023-05-09T10:22:05.280Z,17.40
2023-05-09T10:24:47.262Z,17.50
2023-05-09T10:27:17.841Z,17.50
2023-05-09T10:29:49.877Z,17.60
2023-05-09T10:32:53.458Z,17.60
2023-05-09T10:35:26.228Z,17.60
2023-05-09T10:37:56.974Z,17.70
2023-05-09T10:40:24.447Z,17.70
2023-05-09T10:42:51.755Z,17.70
2023-05-09T10:45:21.410Z,17.20
2023-05-09T10:47:52.971Z,17.70
2023-05-09T10:50:21.356Z,17.80
2023-05-09T10:53:17.152Z,17.80
2023-05-09T10:55:47.667Z,17.80
2023-05-09T10:58:26.974Z,18.00
2023-05-09T11:00:58.939Z,18.30
2023-05-09T11:03:28.084Z,17.80
2023-05-09T11:05:57.190Z,17.90
2023-05-09T11:08:33.108Z,17.90
2023-05-09T11:11:07.294Z,17.90
2023-05-09T11:13:40.221Z,18.00
2023-05-09T11:16:11.978Z,18.00
2023-05-09T11:18:52.926Z,18.00
2023-05-09T11:21:20.416Z,17.90
2023-05-09T11:23:48.565Z,18.10
2023-05-09T11:26:16.556Z,18.00
2023-05-09T11:28:52.313Z,18.00
2023-05-09T11:31:19.531Z,18.00
2023-05-09T11:33:54.861Z,17.90
2023-05-09T11:36:33.355Z,17.90
2023-05-09T11:39:10.726Z,18.00
2023-05-09T11:41:46.691Z,18.10
2023-05-09T11:44:18.832Z,18.00
2023-05-09T11:46:47.254Z,18.10
2023-05-09T11:49:15.241Z,18.10
2023-05-09T11:51:42.558Z,18.10
2023-05-09T11:54:11.893Z,18.20
2023-05-09T11:56:42.161Z,18.10
2023-05-09T11:59:10.486Z,18.20
2023-05-09T12:01:37.689Z,18.20
2023-05-09T12:04:07.433Z,18.40
2023-05-09T12:06:34.545Z,18.60
2023-05-09T12:09:01.614Z,18.50
2023-05-09T12:11:32.161Z,18.60
2023-05-09T12:13:59.376Z,18.40
2023-05-09T12:16:26.568Z,17.90
2023-05-09T12:18:54.221Z,18.30
2023-05-09T12:21:21.705Z,18.40
2023-05-09T12:23:51.179Z,18.50
2023-05-09T12:26:19.542Z,18.50
2023-05-09T12:28:48.356Z,18.50
2023-05-09T12:31:17.085Z,18.50
2023-05-09T12:33:44.306Z,18.50
2023-05-09T12:36:13.478Z,18.50
2023-05-09T12:38:40.692Z,17.90
2023-05-09T12:41:21.931Z,18.70
2023-05-09T12:43:57.021Z,18.80
2023-05-09T12:46:24.398Z,18.70
2023-05-09T12:48:51.701Z,18.30
2023-05-09T12:51:20.653Z,18.70
2023-05-09T12:53:48.137Z,18.60
2023-05-09T12:56:19.576Z,18.60
2023-05-09T12:58:51.595Z,18.70
2023-05-09T13:01:19.909Z,18.70
2023-05-09T13:04:04.268Z,18.70
2023-05-09T13:06:31.418Z,18.80
2023-05-09T13:09:05.529Z,18.80
2023-05-09T13:11:32.638Z,18.90
2023-05-09T13:14:00.055Z,18.90
2023-05-09T13:16:27.627Z,18.90
2023-05-09T13:18:54.782Z,18.90
2023-05-09T13:21:21.841Z,18.90
2023-05-09T13:23:50.083Z,18.90
2023-05-09T13:26:17.303Z,19.00
2023-05-09T13:28:44.447Z,18.80
2023-05-09T13:31:11.645Z,18.90
2023-05-09T13:33:38.858Z,18.90
2023-05-09T13:36:07.067Z,18.90
2023-05-09T13:38:38.511Z,18.80
2023-05-09T13:41:06.239Z,18.90
2023-05-09T13:43:33.768Z,18.90
2023-05-09T13:46:00.916Z,18.80
2023-05-09T13:48:28.161Z,18.80
2023-05-09T13:50:57.399Z,18.80
2023-05-09T13:53:24.465Z,18.80
2023-05-09T13:55:51.996Z,18.80
2023-05-09T13:58:19.186Z,18.80
2023-05-09T14:00:46.542Z,18.80
2023-05-09T14:03:13.652Z,18.80
2023-05-09T14:05:40.789Z,18.80
2023-05-09T14:08:07.940Z,18.80
2023-05-09T14:10:35.015Z,18.80
2023-05-09T14:13:02.169Z,18.80
2023-05-09T14:15:29.886Z,18.60
2023-05-09T14:17:57.099Z,18.80
2023-05-09T14:20:24.301Z,18.80
2023-05-09T14:22:51.725Z,18.80
2023-05-09T14:25:19.004Z,18.70
2023-05-09T14:27:46.068Z,18.70
2023-05-09T14:30:13.852Z,18.70
2023-05-09T14:32:41.457Z,18.70
2023-05-09T14:35:09.427Z,18.70
2023-05-09T14:37:37.300Z,18.70
2023-05-09T14:40:05.554Z,18.60
2023-05-09T14:42:32.856Z,18.80
2023-05-09T14:44:59.951Z,18.70
2023-05-09T14:47:27.107Z,18.70
2023-05-09T14:49:54.302Z,18.70
2023-05-09T14:52:21.425Z,18.50
2023-05-09T14:54:48.481Z,18.60
2023-05-09T14:57:15.561Z,18.60
2023-05-09T14:59:42.824Z,18.70
2023-05-09T15:02:09.902Z,18.70
2023-05-09T15:04:36.974Z,18.80
2023-05-09T15:07:05.892Z,18.80
2023-05-09T15:09:32.950Z,18.70
2023-05-09T15:12:00.008Z,18.60
2023-05-09T15:14:27.166Z,18.60
2023-05-09T15:16:55.217Z,18.60
2023-05-09T15:19:22.563Z,18.60
2023-05-09T15:21:49.707Z,18.60
2023-05-09T15:24:16.996Z,18.60
2023-05-09T15:26:44.211Z,18.60
2023-05-09T15:29:11.348Z,18.60
2023-05-09T15:31:38.500Z,18.60
2023-05-09T15:34:05.569Z,18.60
2023-05-09T15:36:33.961Z,18.20
2023-05-09T15:39:01.130Z,18.60
2023-05-09T15:41:28.619Z,18.70
2023-05-09T15:43:55.893Z,18.60
2023-05-09T15:46:23.322Z,18.60
2023-05-09T15:48:50.716Z,18.50
2023-05-09T15:51:17.761Z,18.50
2023-05-09T15:53:44.830Z,18.50
2023-05-09T15:56:11.945Z,18.60
2023-05-09T15:58:40.213Z,18.50
2023-05-09T16:01:08.177Z,18.00
2023-05-09T16:03:35.515Z,18.60
2023-05-09T16:06:03.208Z,18.60
2023-05-09T16:08:30.272Z,18.50
2023-05-09T16:11:00.662Z,18.50
2023-05-09T16:13:28.179Z,18.50
2023-05-09T16:15:55.605Z,18.40
2023-05-09T16:18:22.832Z,18.40
2023-05-09T16:20:49.984Z,18.40
2023-05-09T16:23:17.450Z,18.60
2023-05-09T16:25:44.952Z,18.40
2023-05-09T16:28:12.135Z,18.40
2023-05-09T16:30:39.203Z,18.50
2023-05-09T16:33:06.335Z,18.50
2023-05-09T16:35:33.829Z,18.40
2023-05-09T16:38:00.878Z,18.40
2023-05-09T16:40:28.469Z,18.40
2023-05-09T16:42:55.849Z,18.50
2023-05-09T16:45:23.061Z,18.50
2023-05-09T16:47:51.176Z,18.40
2023-05-09T16:50:18.482Z,18.50
2023-05-09T16:52:45.608Z,18.50
2023-05-09T16:55:12.669Z,18.40
2023-05-09T16:57:39.810Z,18.40
2023-05-09T17:00:07.953Z,18.40
2023-05-09T17:02:36.258Z,18.40
2023-05-09T17:05:04.479Z,18.40
2023-05-09T17:07:32.153Z,18.40
2023-05-09T17:09:59.479Z,18.40
2023-05-09T17:12:27.460Z,18.40
2023-05-09T17:14:54.614Z,18.40
2023-05-09T17:17:21.729Z,18.30
2023-05-09T17:19:48.824Z,18.40
2023-05-09T17:22:15.882Z,18.40
2023-05-09T17:24:42.994Z,18.30
2023-05-09T17:27:11.304Z,18.30
2023-05-09T17:29:38.369Z,18.40
2023-05-09T17:32:05.932Z,18.40
2023-05-09T17:34:33.389Z,18.20
2023-05-09T17:37:02.167Z,18.30
2023-05-09T17:39:29.476Z,18.50
2023-05-09T17:41:56.628Z,18.70
2023-05-09T17:44:24.205Z,18.80
2023-05-09T17:46:51.821Z,19.00
2023-05-09T17:49:18.881Z,18.90
2023-05-09T17:51:45.952Z,19.00
2023-05-09T17:54:14.233Z,18.80
2023-05-09T17:56:42.028Z,18.60
2023-05-09T17:59:09.078Z,18.50
2023-05-09T18:01:36.190Z,18.30
2023-05-09T18:04:03.560Z,18.40
2023-05-09T18:06:31.186Z,18.20
2023-05-09T18:08:58.257Z,18.20
2023-05-09T18:11:26.051Z,18.30
2023-05-09T18:13:53.352Z,18.30
2023-05-09T18:16:20.473Z,18.20
2023-05-09T18:18:47.719Z,18.20
2023-05-09T18:21:14.906Z,18.20
2023-05-09T18:23:42.013Z,18.20
2023-05-09T18:26:09.136Z,18.10
2023-05-09T18:28:39.661Z,18.10
2023-05-09T18:31:09.421Z,18.10
2023-05-09T18:33:38.775Z,18.10
2023-05-09T18:36:08.837Z,18.30
2023-05-09T18:38:38.317Z,18.10
2023-05-09T18:41:10.348Z,18.10
2023-05-09T18:43:41.856Z,18.10
2023-05-09T18:46:08.991Z,18.00
2023-05-09T18:48:36.052Z,18.00
2023-05-09T18:51:03.136Z,18.00
2023-05-09T18:53:31.519Z,18.00
2023-05-09T18:55:58.571Z,18.00
2023-05-09T18:58:25.625Z,18.10
2023-05-09T19:00:53.030Z,18.10
2023-05-09T19:03:20.926Z,18.10
2023-05-09T19:05:48.077Z,18.10
2023-05-09T19:08:15.521Z,18.10
2023-05-09T19:10:43.329Z,18.00
2023-05-09T19:13:10.701Z,17.70
2023-05-09T19:15:37.970Z,18.10
2023-05-09T19:18:05.256Z,18.20
2023-05-09T19:20:32.394Z,18.10
2023-05-09T19:22:59.579Z,17.90
2023-05-09T19:25:30.254Z,18.10
2023-05-09T19:27:57.325Z,18.10
2023-05-09T19:30:24.361Z,18.00
2023-05-09T19:32:52.631Z,18.00
2023-05-09T19:35:20.462Z,18.00
2023-05-09T19:37:47.617Z,18.10
2023-05-09T19:40:14.994Z,18.10
2023-05-09T19:42:42.243Z,18.10
2023-05-09T19:45:09.928Z,18.10
2023-05-09T19:47:37.103Z,18.10
2023-05-09T19:50:04.444Z,18.10
2023-05-09T19:52:31.683Z,18.10
2023-05-09T19:54:58.810Z,18.10
2023-05-09T19:57:25.976Z,18.10
2023-05-09T19:59:54.417Z,18.10
2023-05-09T20:02:21.513Z,18.10
2023-05-09T20:04:49.860Z,18.10
2023-05-09T20:07:17.940Z,18.10
2023-05-09T20:09:45.217Z,18.00
2023-05-09T20:12:13.205Z,18.00
2023-05-09T20:14:40.458Z,18.10
2023-05-09T20:17:07.606Z,18.10
2023-05-09T20:19:34.732Z,18.10
2023-05-09T20:22:02.230Z,18.10
2023-05-09T20:24:33.179Z,18.10
2023-05-09T20:27:02.139Z,19.40
2023-05-09T20:29:29.222Z,18.00
2023-05-09T20:31:56.402Z,18.00
2023-05-09T20:34:24.579Z,18.00
2023-05-09T20:36:54.978Z,18.00
2023-05-09T20:39:23.015Z,18.10
2023-05-09T20:41:51.152Z,18.00
2023-05-09T20:44:19.002Z,17.90
2023-05-09T20:46:46.355Z,17.90
2023-05-09T20:49:13.590Z,17.90
2023-05-09T20:51:41.919Z,17.90
2023-05-09T20:54:09.202Z,17.90
2023-05-09T20:56:36.322Z,17.90
2023-05-09T20:59:04.087Z,18.10
2023-05-09T21:01:35.299Z,17.90
2023-05-09T21:04:05.455Z,17.90
2023-05-09T21:06:33.044Z,17.90
2023-05-09T21:09:00.216Z,17.80
2023-05-09T21:11:27.380Z,18.00
2023-05-09T21:13:54.461Z,18.00
2023-05-09T21:16:21.932Z,17.90
2023-05-09T21:18:49.080Z,18.00
2023-05-09T21:21:16.176Z,18.00
2023-05-09T21:23:43.234Z,18.00
2023-05-09T21:26:10.328Z,18.00
2023-05-09T21:28:37.393Z,18.00
2023-05-09T21:31:04.814Z,18.10
2023-05-09T21:33:31.912Z,17.40
2023-05-09T21:35:59.267Z,17.00
2023-05-09T21:38:26.336Z,16.80
2023-05-09T21:40:53.481Z,16.80
2023-05-09T21:43:20.598Z,16.70
2023-05-09T21:45:47.725Z,16.60
2023-05-09T21:48:14.919Z,16.90
2023-05-09T21:50:45.916Z,17.20
2023-05-09T21:53:13.736Z,17.40
2023-05-09T21:55:41.273Z,17.60
2023-05-09T21:58:08.362Z,17.70
2023-05-09T22:00:35.448Z,17.80
2023-05-09T22:03:02.636Z,17.90
2023-05-09T22:05:29.806Z,18.00
2023-05-09T22:07:56.891Z,18.10
2023-05-09T22:10:23.985Z,18.20
2023-05-09T22:12:51.125Z,18.20
2023-05-09T22:15:18.239Z,18.30
2023-05-09T22:17:45.338Z,18.40
2023-05-09T22:20:12.665Z,18.30
2023-05-09T22:22:39.729Z,18.40
2023-05-09T22:25:07.172Z,18.40
2023-05-09T22:27:34.245Z,18.50
2023-05-09T22:30:01.545Z,18.50
2023-05-09T22:32:28.750Z,18.60
2023-05-09T22:34:56.379Z,18.60
2023-05-09T22:37:23.473Z,18.60
2023-05-09T22:39:51.013Z,18.60
2023-05-09T22:42:18.071Z,18.60
2023-05-09T22:44:47.007Z,18.60
2023-05-09T22:47:14.097Z,18.60
2023-05-09T22:49:41.360Z,18.60
2023-05-09T22:52:10.658Z,18.60
2023-05-09T22:54:37.958Z,18.60
2023-05-09T22:57:05.214Z,18.70
2023-05-09T22:59:32.282Z,18.60
2023-05-09T23:01:59.684Z,18.70
2023-05-09T23:04:26.801Z,18.50
2023-05-09T23:06:54.069Z,18.50
2023-05-09T23:09:21.138Z,18.50
2023-05-09T23:11:48.301Z,18.60
2023-05-09T23:14:15.454Z,18.50
2023-05-09T23:16:42.644Z,18.50
2023-05-09T23:19:10.190Z,18.50
2023-05-09T23:21:37.277Z,18.40
2023-05-09T23:24:04.554Z,18.50
2023-05-09T23:26:32.223Z,18.50
2023-05-09T23:28:59.314Z,18.40
2023-05-09T23:31:26.440Z,18.60
2023-05-09T23:33:53.576Z,18.60
2023-05-09T23:36:20.645Z,18.60
2023-05-09T23:38:47.754Z,18.60
2023-05-09T23:41:14.882Z,18.60
2023-05-09T23:43:42.480Z,18.60
2023-05-09T23:46:09.569Z,18.60
2023-05-09T23:48:36.621Z,18.60
2023-05-09T23:51:03.890Z,18.50
2023-05-09T23:53:34.819Z,18.50
2023-05-09T23:56:02.779Z,18.50
2023-05-09T23:58:29.852Z,18.50
